Current Weather

Tri-Township

Savanna, Illinois (KSFY)

Report from: Tuesday, July 16, 2024 3:39 AM CDT
Current time: Tuesday, July 16, 2024 4:43 AM CDT

Nearby weather – Weather history – Daily summaries
Weather forecast

Temperature19.0°C (66.2°F)
Dew point19.0°C (66.2°F)
Winds Calm
Visibility7 mi. (11.3 km)
Clouds Ceiling: Broken clouds 3,900 ft. (1,189 m)
Altimeter29.77 in.Hg (1008 mB)
Relative humidity100 %
Density altitude941 ft. (287 m)
Remarks Fully automated report
Automated weather observing station with precipitation discriminator
Flight conditions Visual Meteorological Conditions
Raw dataKSFY 160839Z AUTO 00000KT 7SM BKN039 19/19 A2977 RMK AO2
An error has occurred. This application may no longer respond until reloaded. Reload 🗙